Bedford Park, Illinois
Current Conditions -  °F | °C
As of 9:53 AM on Wednesday 26 Nov 2014 (Local Time) from KMDW Reporting Station
Overcast Overcast  
Wind Chill: -8°   Ceiling: 2000
Heat Index: -3°   Visibility: 9mi
Dew Point: -7°   Wind: 10mph
Humidity: 75%   Direction: 140°SE
Pressure: 30.16"   Gusts: NA
Location:  41.76°N, 87.8°W
Report Text: KMDW 261553Z 14009KT 9SM OVC020 M03/M07 A3016 RMK AO2 SLP228 T10281067
Loading
Personal Weather Stations






























Interactive Weather Map New forecast layout! Learn more

10-Day Weather Forecast

Advertisements
Track Severe Weather on mobile